createdAt,value
2018-11-05T00:00:38.160Z,952.1
2018-11-05T00:01:38.173Z,952.07
2018-11-05T00:02:38.215Z,952.09
2018-11-05T00:03:38.168Z,952.14
2018-11-05T00:04:38.171Z,952.16
2018-11-05T00:05:38.171Z,952.19
2018-11-05T00:06:38.172Z,952.19
2018-11-05T00:07:38.174Z,952.19
2018-11-05T00:08:38.176Z,952.14
2018-11-05T00:09:38.179Z,952.1
2018-11-05T00:10:38.186Z,952.12
2018-11-05T00:11:38.185Z,952.14
2018-11-05T00:12:38.186Z,952.07
2018-11-05T00:13:38.189Z,952.06
2018-11-05T00:14:38.191Z,952.07
2018-11-05T00:15:38.193Z,952.13
2018-11-05T00:16:38.195Z,952.03
2018-11-05T00:17:38.247Z,952.07
2018-11-05T00:18:38.210Z,952.14
2018-11-05T00:19:38.200Z,952.11
2018-11-05T00:20:38.205Z,952.1
2018-11-05T00:21:38.208Z,952.11
2018-11-05T00:22:38.213Z,952.02
2018-11-05T00:23:38.210Z,952.03
2018-11-05T00:24:38.214Z,951.94
2018-11-05T00:25:38.215Z,951.93
2018-11-05T00:26:38.218Z,951.91
2018-11-05T00:27:38.470Z,951.89
2018-11-05T00:28:38.220Z,951.9
2018-11-05T00:29:38.222Z,951.92
2018-11-05T00:30:38.226Z,951.96
2018-11-05T00:31:38.226Z,951.96
2018-11-05T00:32:38.278Z,951.98
2018-11-05T00:33:38.232Z,951.98
2018-11-05T00:34:38.241Z,951.94
2018-11-05T00:35:38.239Z,951.98
2018-11-05T00:36:38.243Z,951.99
2018-11-05T00:37:38.250Z,951.98
2018-11-05T00:38:38.257Z,951.95
2018-11-05T00:39:38.247Z,951.92
2018-11-05T00:40:38.248Z,951.87
2018-11-05T00:41:38.251Z,951.81
2018-11-05T00:42:38.254Z,951.83
2018-11-05T00:43:38.256Z,951.84
2018-11-05T00:44:38.260Z,951.8
2018-11-05T00:45:38.307Z,951.78
2018-11-05T00:46:38.305Z,951.78
2018-11-05T00:47:38.315Z,951.73
2018-11-05T00:48:38.267Z,951.73
2018-11-05T00:49:38.269Z,951.71
2018-11-05T00:50:38.273Z,951.67
2018-11-05T00:51:38.272Z,951.63
2018-11-05T00:52:38.274Z,951.68
2018-11-05T00:53:38.277Z,951.67
2018-11-05T00:54:38.282Z,951.72
2018-11-05T00:55:38.282Z,951.67
2018-11-05T00:56:38.330Z,951.72
2018-11-05T00:57:38.286Z,951.74
2018-11-05T00:58:38.305Z,951.74
2018-11-05T00:59:38.290Z,951.72
2018-11-05T01:00:38.293Z,951.75
2018-11-05T01:01:38.299Z,951.73
2018-11-05T01:02:38.347Z,951.75
2018-11-05T01:03:38.303Z,951.75
2018-11-05T01:04:38.302Z,951.7
2018-11-05T01:05:38.305Z,951.74
2018-11-05T01:06:38.310Z,951.7
2018-11-05T01:07:38.311Z,951.71
2018-11-05T01:08:38.313Z,951.69
2018-11-05T01:09:38.316Z,951.67
2018-11-05T01:10:38.317Z,951.69
2018-11-05T01:11:38.319Z,951.69
2018-11-05T01:12:38.323Z,951.7
2018-11-05T01:13:38.329Z,951.63
2018-11-05T01:14:38.327Z,951.68
2018-11-05T01:15:38.328Z,951.69
2018-11-05T01:16:38.331Z,951.67
2018-11-05T01:17:38.382Z,951.63
2018-11-05T01:18:38.351Z,951.57
2018-11-05T01:19:38.336Z,951.52
2018-11-05T01:20:38.345Z,951.5
2018-11-05T01:21:38.352Z,951.5
2018-11-05T01:22:38.343Z,951.51
2018-11-05T01:23:38.346Z,951.5
2018-11-05T01:24:38.349Z,951.6
2018-11-05T01:25:38.350Z,951.6
2018-11-05T01:26:38.352Z,951.64
2018-11-05T01:27:38.354Z,951.64
2018-11-05T01:28:38.355Z,951.63
2018-11-05T01:29:38.359Z,951.67
2018-11-05T01:30:38.360Z,951.63
2018-11-05T01:31:38.363Z,951.66
2018-11-05T01:32:38.365Z,951.68
2018-11-05T01:33:38.368Z,951.69
2018-11-05T01:34:38.368Z,951.7
2018-11-05T01:35:38.421Z,951.71
2018-11-05T01:36:38.372Z,951.63
2018-11-05T01:37:38.375Z,951.58
2018-11-05T01:38:38.397Z,951.52
2018-11-05T01:39:38.378Z,951.5
2018-11-05T01:40:38.381Z,951.44
2018-11-05T01:41:38.382Z,951.4
2018-11-05T01:42:38.386Z,951.38
2018-11-05T01:43:38.386Z,951.35
2018-11-05T01:44:38.390Z,951.39
2018-11-05T01:45:38.392Z,951.34
2018-11-05T01:46:38.393Z,951.31
2018-11-05T01:47:38.394Z,951.26
2018-11-05T01:48:38.397Z,951.22
2018-11-05T01:49:38.402Z,951.22
2018-11-05T01:50:38.451Z,951.21
2018-11-05T01:51:38.404Z,951.17
2018-11-05T01:52:38.405Z,951.13
2018-11-05T01:53:38.410Z,951.15
2018-11-05T01:54:38.408Z,951.15
2018-11-05T01:55:38.411Z,951.2
2018-11-05T01:56:38.414Z,951.22
2018-11-05T01:57:38.474Z,951.24
2018-11-05T01:58:38.418Z,951.26
2018-11-05T01:59:38.420Z,951.21
2018-11-05T02:00:38.421Z,951.16
2018-11-05T02:01:38.422Z,951.13
2018-11-05T02:02:38.429Z,951.12
2018-11-05T02:03:38.428Z,951.09
2018-11-05T02:04:38.432Z,951.07
2018-11-05T02:05:38.585Z,951.09
2018-11-05T02:06:38.435Z,951.09
2018-11-05T02:07:38.441Z,951.05
2018-11-05T02:08:38.442Z,951.04
2018-11-05T02:09:38.447Z,951.02
2018-11-05T02:10:38.442Z,951.07
2018-11-05T02:11:38.445Z,951.04
2018-11-05T02:12:38.445Z,951.05
2018-11-05T02:13:38.447Z,951.06
2018-11-05T02:14:38.449Z,951.09
2018-11-05T02:15:38.451Z,951.11
2018-11-05T02:16:38.455Z,951.13
2018-11-05T02:17:38.454Z,951.11
2018-11-05T02:18:38.458Z,951.09
2018-11-05T02:19:38.461Z,951.1
2018-11-05T02:20:38.512Z,951.16
2018-11-05T02:21:38.463Z,951.16
2018-11-05T02:22:38.465Z,951.12
2018-11-05T02:23:38.465Z,951.14
2018-11-05T02:24:38.470Z,951.1
2018-11-05T02:25:38.471Z,951.08
2018-11-05T02:26:38.473Z,951.03
2018-11-05T02:27:38.479Z,951.01
2018-11-05T02:28:38.478Z,950.97
2018-11-05T02:29:38.481Z,950.95
2018-11-05T02:30:38.480Z,950.97
2018-11-05T02:31:38.484Z,950.91
2018-11-05T02:32:38.483Z,950.91
2018-11-05T02:33:38.485Z,950.9
2018-11-05T02:34:38.489Z,950.96
2018-11-05T02:35:38.538Z,950.94
2018-11-05T02:36:38.490Z,950.94
2018-11-05T02:37:38.491Z,950.98
2018-11-05T02:38:38.494Z,951
2018-11-05T02:39:38.493Z,951.01
2018-11-05T02:40:38.498Z,951.04
2018-11-05T02:41:38.498Z,950.99
2018-11-05T02:42:38.500Z,950.94
2018-11-05T02:43:38.504Z,950.9
2018-11-05T02:44:38.507Z,950.83
2018-11-05T02:45:38.508Z,950.82
2018-11-05T02:46:38.507Z,950.85
2018-11-05T02:47:38.513Z,950.84
2018-11-05T02:48:38.509Z,950.83
2018-11-05T02:49:38.511Z,950.81
2018-11-05T02:50:38.564Z,950.75
2018-11-05T02:51:38.516Z,950.81
2018-11-05T02:52:38.515Z,950.76
2018-11-05T02:53:38.518Z,950.76
2018-11-05T02:54:38.522Z,950.83
2018-11-05T02:55:38.571Z,950.9
2018-11-05T02:56:38.526Z,950.89
2018-11-05T02:57:38.526Z,950.89
2018-11-05T02:58:38.526Z,950.87
2018-11-05T02:59:38.528Z,950.92
2018-11-05T03:00:38.530Z,950.94
2018-11-05T03:01:38.532Z,951.04
2018-11-05T03:02:38.532Z,951
2018-11-05T03:03:38.535Z,950.98
2018-11-05T03:04:38.535Z,950.93
2018-11-05T03:05:38.537Z,950.9
2018-11-05T03:06:38.542Z,950.88
2018-11-05T03:07:38.540Z,950.85
2018-11-05T03:08:38.542Z,950.8
2018-11-05T03:09:38.543Z,950.78
2018-11-05T03:10:38.596Z,950.84
2018-11-05T03:11:38.562Z,950.89
2018-11-05T03:12:38.547Z,950.85
2018-11-05T03:13:38.548Z,950.86
2018-11-05T03:14:38.551Z,950.86
2018-11-05T03:15:38.551Z,950.8
2018-11-05T03:16:38.553Z,950.8
2018-11-05T03:17:38.555Z,950.8
2018-11-05T03:18:38.555Z,950.8
2018-11-05T03:19:38.557Z,950.82
2018-11-05T03:20:38.559Z,950.83
2018-11-05T03:21:38.560Z,950.83
2018-11-05T03:22:38.561Z,950.82
2018-11-05T03:23:38.564Z,950.82
2018-11-05T03:24:38.565Z,950.81
2018-11-05T03:25:38.616Z,950.8
2018-11-05T03:26:38.567Z,950.79
2018-11-05T03:27:38.569Z,950.73
2018-11-05T03:28:38.571Z,950.72
2018-11-05T03:29:38.571Z,950.72
2018-11-05T03:30:38.573Z,950.73
2018-11-05T03:31:38.575Z,950.75
2018-11-05T03:32:38.577Z,950.76
2018-11-05T03:33:38.578Z,950.75
2018-11-05T03:34:38.578Z,950.7
2018-11-05T03:35:38.637Z,950.73
2018-11-05T03:36:38.581Z,950.81
2018-11-05T03:37:38.582Z,950.86
2018-11-05T03:38:38.583Z,950.86
2018-11-05T03:39:38.585Z,950.86
2018-11-05T03:40:38.637Z,950.91
2018-11-05T03:41:38.589Z,950.96
2018-11-05T03:42:38.591Z,951.04
2018-11-05T03:43:38.593Z,951.02
2018-11-05T03:44:38.600Z,951.02
2018-11-05T03:45:38.594Z,950.97
2018-11-05T03:46:38.594Z,951.05
2018-11-05T03:47:38.596Z,951.06
2018-11-05T03:48:38.598Z,951.06
2018-11-05T03:49:38.599Z,951.01
2018-11-05T03:50:38.609Z,950.99
2018-11-05T03:51:38.607Z,950.94
2018-11-05T03:52:38.602Z,950.85
2018-11-05T03:53:38.605Z,950.83
2018-11-05T03:54:38.606Z,950.79
2018-11-05T03:55:38.709Z,950.82
2018-11-05T03:56:38.678Z,950.87
2018-11-05T03:57:38.611Z,950.87
2018-11-05T03:58:38.613Z,950.87
2018-11-05T03:59:38.615Z,950.87
2018-11-05T04:00:38.622Z,950.86
2018-11-05T04:01:38.618Z,950.91
2018-11-05T04:02:38.618Z,950.9
2018-11-05T04:03:38.621Z,950.88
2018-11-05T04:04:38.633Z,950.86
2018-11-05T04:05:38.675Z,950.86
2018-11-05T04:06:38.626Z,950.88
2018-11-05T04:07:38.630Z,950.89
2018-11-05T04:08:38.635Z,950.92
2018-11-05T04:09:38.629Z,950.93
2018-11-05T04:10:38.631Z,950.91
2018-11-05T04:11:38.633Z,950.96
2018-11-05T04:12:38.635Z,950.98
2018-11-05T04:13:38.634Z,950.94
2018-11-05T04:14:38.636Z,950.97
2018-11-05T04:15:38.788Z,950.92
2018-11-05T04:16:38.644Z,950.89
2018-11-05T04:17:38.644Z,950.84
2018-11-05T04:18:38.643Z,950.85
2018-11-05T04:19:38.646Z,950.85
2018-11-05T04:20:38.696Z,950.81
2018-11-05T04:21:38.648Z,950.85
2018-11-05T04:22:38.650Z,950.9
2018-11-05T04:23:38.651Z,950.86
2018-11-05T04:24:38.654Z,950.86
2018-11-05T04:25:38.654Z,950.82
2018-11-05T04:26:38.658Z,950.8
2018-11-05T04:27:38.738Z,950.74
2018-11-05T04:28:38.658Z,950.67
2018-11-05T04:29:38.660Z,950.62
2018-11-05T04:30:38.661Z,950.62
2018-11-05T04:31:38.661Z,950.52
2018-11-05T04:32:38.663Z,950.54
2018-11-05T04:33:38.669Z,950.5
2018-11-05T04:34:38.666Z,950.45
2018-11-05T04:35:38.717Z,950.43
2018-11-05T04:36:38.669Z,950.37
2018-11-05T04:37:38.685Z,950.44
2018-11-05T04:38:38.677Z,950.47
2018-11-05T04:39:38.671Z,950.47
2018-11-05T04:40:38.673Z,950.47
2018-11-05T04:41:38.677Z,950.47
2018-11-05T04:42:38.688Z,950.5
2018-11-05T04:43:38.679Z,950.47
2018-11-05T04:44:38.680Z,950.48
2018-11-05T04:45:38.684Z,950.44
2018-11-05T04:46:38.683Z,950.4
2018-11-05T04:47:38.688Z,950.45
2018-11-05T04:48:38.686Z,950.43
2018-11-05T04:49:38.688Z,950.46
2018-11-05T04:50:38.741Z,950.47
2018-11-05T04:51:38.691Z,950.42
2018-11-05T04:52:38.691Z,950.4
2018-11-05T04:53:38.693Z,950.38
2018-11-05T04:54:38.694Z,950.41
2018-11-05T04:55:38.696Z,950.41
2018-11-05T04:56:38.697Z,950.38
2018-11-05T04:57:38.706Z,950.34
2018-11-05T04:58:38.700Z,950.37
2018-11-05T04:59:38.704Z,950.33
2018-11-05T05:00:38.701Z,950.39
2018-11-05T05:01:38.704Z,950.38
2018-11-05T05:02:38.706Z,950.4
2018-11-05T05:03:38.708Z,950.4
2018-11-05T05:04:38.707Z,950.43
2018-11-05T05:05:38.759Z,950.44
2018-11-05T05:06:38.711Z,950.46
2018-11-05T05:07:38.714Z,950.48
2018-11-05T05:08:38.714Z,950.48
2018-11-05T05:09:38.718Z,950.48
2018-11-05T05:10:38.718Z,950.46
2018-11-05T05:11:38.724Z,950.42
2018-11-05T05:12:38.722Z,950.38
2018-11-05T05:13:38.720Z,950.38
2018-11-05T05:14:38.722Z,950.37
2018-11-05T05:15:38.723Z,950.39
2018-11-05T05:16:38.730Z,950.38
2018-11-05T05:17:38.726Z,950.37
2018-11-05T05:18:38.727Z,950.4
2018-11-05T05:19:38.728Z,950.37
2018-11-05T05:20:38.781Z,950.41
2018-11-05T05:21:38.732Z,950.41
2018-11-05T05:22:38.906Z,950.4
2018-11-05T05:23:38.733Z,950.36
2018-11-05T05:24:38.740Z,950.39
2018-11-05T05:25:38.788Z,950.4
2018-11-05T05:26:38.738Z,950.4
2018-11-05T05:27:38.741Z,950.36
2018-11-05T05:28:38.741Z,950.38
2018-11-05T05:29:38.742Z,950.4
2018-11-05T05:30:38.746Z,950.39
2018-11-05T05:31:38.747Z,950.44
2018-11-05T05:32:38.745Z,950.43
2018-11-05T05:33:38.790Z,950.49
2018-11-05T05:34:38.752Z,950.45
2018-11-05T05:35:38.800Z,950.38
2018-11-05T05:36:38.751Z,950.36
2018-11-05T05:37:38.752Z,950.31
2018-11-05T05:38:38.754Z,950.32
2018-11-05T05:39:38.753Z,950.3
2018-11-05T05:40:38.806Z,950.29
2018-11-05T05:41:38.763Z,950.33
2018-11-05T05:42:38.757Z,950.34
2018-11-05T05:43:38.761Z,950.35
2018-11-05T05:44:38.759Z,950.36
2018-11-05T05:45:38.811Z,950.38
2018-11-05T05:46:38.762Z,950.4
2018-11-05T05:47:38.763Z,950.41
2018-11-05T05:48:38.763Z,950.41
2018-11-05T05:49:38.765Z,950.45
2018-11-05T05:50:38.778Z,950.45
2018-11-05T05:51:38.768Z,950.49
2018-11-05T05:52:38.769Z,950.46
2018-11-05T05:53:38.771Z,950.5
2018-11-05T05:54:38.774Z,950.54
2018-11-05T05:55:38.772Z,950.53
2018-11-05T05:56:38.772Z,950.48
2018-11-05T05:57:38.773Z,950.45
2018-11-05T05:58:38.775Z,950.45
2018-11-05T05:59:38.808Z,950.44
2018-11-05T06:00:38.826Z,950.45
2018-11-05T06:01:38.776Z,950.46
2018-11-05T06:02:38.776Z,950.5
2018-11-05T06:03:38.779Z,950.51
2018-11-05T06:04:38.778Z,950.51
2018-11-05T06:05:38.779Z,950.45
2018-11-05T06:06:38.828Z,950.44
2018-11-05T06:07:38.819Z,950.44
2018-11-05T06:08:38.782Z,950.52
2018-11-05T06:09:38.800Z,950.51
2018-11-05T06:10:38.782Z,950.45
2018-11-05T06:11:38.783Z,950.44
2018-11-05T06:12:38.791Z,950.4
2018-11-05T06:13:38.789Z,950.42
2018-11-05T06:14:38.793Z,950.46
2018-11-05T06:15:38.851Z,950.45
2018-11-05T06:16:38.792Z,950.44
2018-11-05T06:17:38.793Z,950.43
2018-11-05T06:18:38.795Z,950.4
2018-11-05T06:19:38.796Z,950.41
2018-11-05T06:20:38.797Z,950.42
2018-11-05T06:21:38.818Z,950.44
2018-11-05T06:22:38.799Z,950.42
2018-11-05T06:23:38.803Z,950.35
2018-11-05T06:24:38.799Z,950.3
2018-11-05T06:25:38.801Z,950.32
2018-11-05T06:26:38.802Z,950.34
2018-11-05T06:27:38.802Z,950.42
2018-11-05T06:28:38.892Z,950.45
2018-11-05T06:29:38.806Z,950.45
2018-11-05T06:30:38.870Z,950.53
2018-11-05T06:31:38.808Z,950.6
2018-11-05T06:32:38.838Z,950.65
2018-11-05T06:33:38.810Z,950.64
2018-11-05T06:34:38.809Z,950.67
2018-11-05T06:35:38.910Z,950.66
2018-11-05T06:36:38.811Z,950.63
2018-11-05T06:37:38.813Z,950.63
2018-11-05T06:38:38.814Z,950.65
2018-11-05T06:39:38.818Z,950.69
2018-11-05T06:40:38.815Z,950.65
2018-11-05T06:41:38.836Z,950.6
2018-11-05T06:42:38.816Z,950.56
2018-11-05T06:43:38.818Z,950.56
2018-11-05T06:44:38.858Z,950.59
2018-11-05T06:45:38.872Z,950.56
2018-11-05T06:46:38.823Z,950.54
2018-11-05T06:47:38.823Z,950.55
2018-11-05T06:48:38.825Z,950.52
2018-11-05T06:49:38.824Z,950.56
2018-11-05T06:50:38.876Z,950.58
2018-11-05T06:51:38.828Z,950.63
2018-11-05T06:52:38.842Z,950.68
2018-11-05T06:53:38.830Z,950.66
2018-11-05T06:54:38.830Z,950.62
2018-11-05T06:55:38.835Z,950.54
2018-11-05T06:56:38.833Z,950.56
2018-11-05T06:57:38.851Z,950.56
2018-11-05T06:58:38.834Z,950.53
2018-11-05T06:59:38.839Z,950.56
2018-11-05T07:00:38.840Z,950.47
2018-11-05T07:01:38.839Z,950.48
2018-11-05T07:02:38.978Z,950.51
2018-11-05T07:03:38.840Z,950.53
2018-11-05T07:04:38.852Z,950.56
2018-11-05T07:05:39.014Z,950.59
2018-11-05T07:06:38.848Z,950.55
2018-11-05T07:07:38.849Z,950.55
2018-11-05T07:08:38.847Z,950.5
2018-11-05T07:09:38.913Z,950.5
2018-11-05T07:10:38.851Z,950.56
2018-11-05T07:11:38.853Z,950.53
2018-11-05T07:12:38.853Z,950.58
2018-11-05T07:13:38.855Z,950.56
2018-11-05T07:14:38.857Z,950.57
2018-11-05T07:15:38.860Z,950.57
2018-11-05T07:16:38.883Z,950.57
2018-11-05T07:17:38.861Z,950.55
2018-11-05T07:18:39.000Z,950.61
2018-11-05T07:19:38.863Z,950.73
2018-11-05T07:20:38.916Z,950.82
2018-11-05T07:21:38.866Z,950.87
2018-11-05T07:22:38.869Z,950.94
2018-11-05T07:23:38.869Z,950.91
2018-11-05T07:24:38.872Z,950.83
2018-11-05T07:25:38.923Z,950.81
2018-11-05T07:26:38.884Z,950.81
2018-11-05T07:27:38.888Z,950.81
2018-11-05T07:28:38.878Z,950.81
2018-11-05T07:29:38.883Z,950.85
2018-11-05T07:30:38.931Z,950.88
2018-11-05T07:31:38.887Z,950.83
2018-11-05T07:32:38.890Z,950.73
2018-11-05T07:33:38.933Z,950.66
2018-11-05T07:34:38.887Z,950.65
2018-11-05T07:35:38.890Z,950.66
2018-11-05T07:36:38.892Z,950.65
2018-11-05T07:37:38.891Z,950.64
2018-11-05T07:38:38.894Z,950.68
2018-11-05T07:39:38.896Z,950.7
2018-11-05T07:40:38.898Z,950.6
2018-11-05T07:41:38.899Z,950.57
2018-11-05T07:42:38.902Z,950.68
2018-11-05T07:43:38.903Z,950.67
2018-11-05T07:44:38.905Z,950.69
2018-11-05T07:45:38.953Z,950.69
2018-11-05T07:46:38.905Z,950.71
2018-11-05T07:47:38.908Z,950.74
2018-11-05T07:48:38.909Z,950.84
2018-11-05T07:49:38.912Z,950.92
2018-11-05T07:50:38.933Z,950.89
2018-11-05T07:51:38.917Z,950.97
2018-11-05T07:52:38.922Z,950.94
2018-11-05T07:53:38.921Z,950.89
2018-11-05T07:54:38.925Z,950.78
2018-11-05T07:55:38.925Z,950.72
2018-11-05T07:56:38.961Z,950.69
2018-11-05T07:57:38.927Z,950.6
2018-11-05T07:58:38.929Z,950.65
2018-11-05T07:59:38.931Z,950.69
2018-11-05T08:00:39.032Z,950.74
2018-11-05T08:01:38.936Z,950.74
2018-11-05T08:02:38.952Z,950.81
2018-11-05T08:03:38.937Z,950.82
2018-11-05T08:04:38.941Z,950.71
2018-11-05T08:05:38.944Z,950.69
2018-11-05T08:06:38.945Z,950.67
2018-11-05T08:07:38.948Z,950.61
2018-11-05T08:08:38.949Z,950.57
2018-11-05T08:09:38.954Z,950.56
2018-11-05T08:10:38.953Z,950.57
2018-11-05T08:11:38.957Z,950.65
2018-11-05T08:12:38.962Z,950.72
2018-11-05T08:13:38.961Z,950.68
2018-11-05T08:14:38.962Z,950.71
2018-11-05T08:15:39.015Z,950.66
2018-11-05T08:16:38.968Z,950.7
2018-11-05T08:17:38.970Z,950.67
2018-11-05T08:18:38.972Z,950.7
2018-11-05T08:19:38.974Z,950.68
2018-11-05T08:20:38.977Z,950.7
2018-11-05T08:21:38.978Z,950.71
2018-11-05T08:22:38.980Z,950.66
2018-11-05T08:23:38.982Z,950.66
2018-11-05T08:24:38.984Z,950.61
2018-11-05T08:25:38.987Z,950.65
2018-11-05T08:26:38.987Z,950.69
2018-11-05T08:27:38.994Z,950.73
2018-11-05T08:28:38.994Z,950.72
2018-11-05T08:29:38.996Z,950.65
2018-11-05T08:30:39.049Z,950.65
2018-11-05T08:31:38.999Z,950.67
2018-11-05T08:32:39.002Z,950.66
2018-11-05T08:33:39.005Z,950.7
2018-11-05T08:34:39.006Z,950.63
2018-11-05T08:35:39.058Z,950.67
2018-11-05T08:36:39.011Z,950.7
2018-11-05T08:37:39.012Z,950.71
2018-11-05T08:38:39.020Z,950.74
2018-11-05T08:39:39.020Z,950.79
2018-11-05T08:40:39.073Z,950.86
2018-11-05T08:41:39.028Z,950.95
2018-11-05T08:42:39.029Z,950.99
2018-11-05T08:43:39.029Z,950.93
2018-11-05T08:44:39.032Z,950.89
2018-11-05T08:45:39.035Z,950.92
2018-11-05T08:46:39.103Z,950.91
2018-11-05T08:47:39.039Z,950.93
2018-11-05T08:48:39.044Z,951
2018-11-05T08:49:39.047Z,951.03
2018-11-05T08:50:39.087Z,950.99
2018-11-05T08:51:39.220Z,950.85
2018-11-05T08:52:39.054Z,950.8
2018-11-05T08:53:39.059Z,950.75
2018-11-05T08:54:39.059Z,950.79
2018-11-05T08:55:39.117Z,950.79
2018-11-05T08:56:39.066Z,950.82
2018-11-05T08:57:39.199Z,950.79
2018-11-05T08:58:39.071Z,950.77
2018-11-05T08:59:39.076Z,950.68
2018-11-05T09:00:39.078Z,950.71
2018-11-05T09:01:39.082Z,950.66
2018-11-05T09:02:39.085Z,950.62
2018-11-05T09:03:39.089Z,950.58
2018-11-05T09:04:39.177Z,950.62
2018-11-05T09:05:39.095Z,950.56
2018-11-05T09:06:39.098Z,950.58
2018-11-05T09:07:39.101Z,950.61
2018-11-05T09:08:39.106Z,950.72
2018-11-05T09:09:39.109Z,950.74
2018-11-05T09:10:39.462Z,950.69
2018-11-05T09:11:39.406Z,950.72
2018-11-05T09:12:39.118Z,950.81
2018-11-05T09:13:39.120Z,950.77
2018-11-05T09:14:39.125Z,950.73
2018-11-05T09:15:39.128Z,950.66
2018-11-05T09:16:39.153Z,950.66
2018-11-05T09:17:39.136Z,950.66
2018-11-05T09:18:39.138Z,950.64
2018-11-05T09:19:39.142Z,950.68
2018-11-05T09:20:39.253Z,950.71
2018-11-05T09:21:39.151Z,950.74
2018-11-05T09:22:39.156Z,950.74
2018-11-05T09:23:39.160Z,950.68
2018-11-05T09:24:39.164Z,950.62
2018-11-05T09:25:39.269Z,950.55
2018-11-05T09:26:39.173Z,950.54
2018-11-05T09:27:39.193Z,950.46
2018-11-05T09:28:39.180Z,950.42
2018-11-05T09:29:39.189Z,950.45
2018-11-05T09:30:39.191Z,950.51
2018-11-05T09:31:39.195Z,950.48
2018-11-05T09:32:39.198Z,950.46
2018-11-05T09:33:39.203Z,950.47
2018-11-05T09:34:39.208Z,950.57
2018-11-05T09:35:39.263Z,950.55
2018-11-05T09:36:39.217Z,950.55
2018-11-05T09:37:39.224Z,950.48
2018-11-05T09:38:39.227Z,950.49
2018-11-05T09:39:39.232Z,950.46
2018-11-05T09:40:39.239Z,950.47
2018-11-05T09:41:39.242Z,950.45
2018-11-05T09:42:39.285Z,950.44
2018-11-05T09:43:39.268Z,950.45
2018-11-05T09:44:39.258Z,950.49
2018-11-05T09:45:39.267Z,950.49
2018-11-05T09:46:39.268Z,950.51
2018-11-05T09:47:39.273Z,950.52
2018-11-05T09:48:39.280Z,950.58
2018-11-05T09:49:39.291Z,950.59
2018-11-05T09:50:39.432Z,950.62
2018-11-05T09:51:39.299Z,950.58
2018-11-05T09:52:39.304Z,950.58
2018-11-05T09:53:39.310Z,950.54
2018-11-05T09:54:39.317Z,950.52
2018-11-05T09:55:39.480Z,950.54
2018-11-05T09:56:39.334Z,950.59
2018-11-05T09:57:39.348Z,950.53
2018-11-05T09:58:39.350Z,950.48
2018-11-05T09:59:39.359Z,950.49
2018-11-05T10:00:39.420Z,950.5
2018-11-05T10:01:39.377Z,950.47
2018-11-05T10:02:39.424Z,950.47
2018-11-05T10:03:39.713Z,950.49
2018-11-05T10:04:39.750Z,950.44
2018-11-05T10:05:39.436Z,950.43
2018-11-05T10:06:39.429Z,950.45
2018-11-05T10:07:39.440Z,950.55
2018-11-05T10:08:39.451Z,950.62
2018-11-05T10:09:39.573Z,950.61
2018-11-05T10:10:39.524Z,950.62
2018-11-05T10:11:39.685Z,950.6
2018-11-05T10:12:39.496Z,950.53
2018-11-05T10:13:39.508Z,950.53
2018-11-05T10:14:39.520Z,950.52
2018-11-05T10:15:39.531Z,950.58
2018-11-05T10:16:39.543Z,950.55
2018-11-05T10:17:39.555Z,950.54
2018-11-05T10:18:39.565Z,950.5
2018-11-05T10:19:39.577Z,950.42
2018-11-05T10:20:39.589Z,950.43
2018-11-05T10:21:39.602Z,950.43
2018-11-05T10:22:39.613Z,950.47
2018-11-05T10:23:39.627Z,950.5
2018-11-05T10:24:39.727Z,950.53
2018-11-05T10:25:39.800Z,950.54
2018-11-05T10:26:39.664Z,950.63
2018-11-05T10:27:39.673Z,950.62
2018-11-05T10:28:39.685Z,950.61
2018-11-05T10:29:39.706Z,950.57
2018-11-05T10:30:39.712Z,950.57
2018-11-05T10:31:39.746Z,950.51
2018-11-05T10:32:39.768Z,950.47
2018-11-05T10:33:39.750Z,950.46
2018-11-05T10:34:39.758Z,950.36
2018-11-05T10:35:39.771Z,950.31
2018-11-05T10:36:39.782Z,950.24
2018-11-05T10:37:39.795Z,950.24
2018-11-05T10:38:39.810Z,950.26
2018-11-05T10:39:39.821Z,950.27
2018-11-05T10:40:39.887Z,950.28
2018-11-05T10:41:39.848Z,950.39
2018-11-05T10:42:39.862Z,950.43
2018-11-05T10:43:39.874Z,950.45
2018-11-05T10:44:39.899Z,950.43
2018-11-05T10:45:39.905Z,950.47
2018-11-05T10:46:39.916Z,950.48
2018-11-05T10:47:39.931Z,950.5
2018-11-05T10:48:39.943Z,950.54
2018-11-05T10:49:39.955Z,950.56
2018-11-05T10:50:40.041Z,950.52
2018-11-05T10:51:40.058Z,950.44
2018-11-05T10:52:39.998Z,950.41
2018-11-05T10:53:40.013Z,950.44
2018-11-05T10:54:40.029Z,950.47
2018-11-05T10:55:40.091Z,950.5
2018-11-05T10:56:40.056Z,950.51
2018-11-05T10:57:40.113Z,950.52
2018-11-05T10:58:40.084Z,950.57
2018-11-05T10:59:40.102Z,950.5
2018-11-05T11:00:40.115Z,950.47
2018-11-05T11:01:40.144Z,950.48
2018-11-05T11:02:40.145Z,950.45
2018-11-05T11:03:40.175Z,950.42
2018-11-05T11:04:40.174Z,950.34
2018-11-05T11:05:40.193Z,950.35
2018-11-05T11:06:40.206Z,950.34
2018-11-05T11:07:40.223Z,950.35
2018-11-05T11:08:40.239Z,950.32
2018-11-05T11:09:40.293Z,950.34
2018-11-05T11:10:40.323Z,950.33
2018-11-05T11:11:40.291Z,950.33
2018-11-05T11:12:40.307Z,950.21
2018-11-05T11:13:40.324Z,950.2
2018-11-05T11:14:40.341Z,950.13
2018-11-05T11:15:40.359Z,950.15
2018-11-05T11:16:40.378Z,950.16
2018-11-05T11:17:40.396Z,950.13
2018-11-05T11:18:40.418Z,950.06
2018-11-05T11:19:40.433Z,950.07
2018-11-05T11:20:40.455Z,950.03
2018-11-05T11:21:40.469Z,950.07
2018-11-05T11:22:40.486Z,950.02
2018-11-05T11:23:40.512Z,950.11
2018-11-05T11:24:40.525Z,950.08
2018-11-05T11:25:40.593Z,950.08
2018-11-05T11:26:40.562Z,950.1
2018-11-05T11:27:40.598Z,950.05
2018-11-05T11:28:40.686Z,950.13
2018-11-05T11:29:40.620Z,950.1
2018-11-05T11:30:40.827Z,950.02
2018-11-05T11:31:40.658Z,950.02
2018-11-05T11:32:40.676Z,949.9
2018-11-05T11:33:40.699Z,949.93
2018-11-05T11:34:40.717Z,949.88
2018-11-05T11:35:40.736Z,949.86
2018-11-05T11:36:40.831Z,949.9
2018-11-05T11:37:40.777Z,949.91
2018-11-05T11:38:40.798Z,949.92
2018-11-05T11:39:40.815Z,949.92
2018-11-05T11:40:40.889Z,949.97
2018-11-05T11:41:40.865Z,949.98
2018-11-05T11:42:40.878Z,950.02
2018-11-05T11:43:40.899Z,949.98
2018-11-05T11:44:40.982Z,949.94
2018-11-05T11:45:40.990Z,949.9
2018-11-05T11:46:40.958Z,949.85
2018-11-05T11:47:40.982Z,949.78
2018-11-05T11:48:41.000Z,949.85
2018-11-05T11:49:41.020Z,949.83
2018-11-05T11:50:41.041Z,949.79
2018-11-05T11:51:41.060Z,949.73
2018-11-05T11:52:41.137Z,949.73
2018-11-05T11:53:41.102Z,949.76
2018-11-05T11:54:41.121Z,949.77
2018-11-05T11:55:41.191Z,949.77
2018-11-05T11:56:41.164Z,949.75
2018-11-05T11:57:41.180Z,949.78
2018-11-05T11:58:41.204Z,949.67
2018-11-05T11:59:41.224Z,949.68
2018-11-05T12:00:41.241Z,949.62
2018-11-05T12:01:41.261Z,949.59
2018-11-05T12:02:41.281Z,949.61
2018-11-05T12:03:41.346Z,949.65
2018-11-05T12:04:41.318Z,949.66
2018-11-05T12:05:41.338Z,949.61
2018-11-05T12:06:41.356Z,949.65
2018-11-05T12:07:41.375Z,949.7
2018-11-05T12:08:41.394Z,949.62
2018-11-05T12:09:41.414Z,949.64
2018-11-05T12:10:41.433Z,949.7
2018-11-05T12:11:41.453Z,949.72
2018-11-05T12:12:41.523Z,949.64
2018-11-05T12:13:41.492Z,949.55
2018-11-05T12:14:41.758Z,949.6
2018-11-05T12:15:41.540Z,949.54
2018-11-05T12:16:41.569Z,949.46
2018-11-05T12:17:41.623Z,949.47
2018-11-05T12:18:41.593Z,949.65
2018-11-05T12:19:41.611Z,949.5
2018-11-05T12:20:41.632Z,949.62
2018-11-05T12:21:41.652Z,949.47
2018-11-05T12:22:41.669Z,949.38
2018-11-05T12:23:41.690Z,949.27
2018-11-05T12:24:41.747Z,949.26
2018-11-05T12:25:41.728Z,949.46
2018-11-05T12:26:41.792Z,949.45
2018-11-05T12:27:41.767Z,949.44
2018-11-05T12:28:41.786Z,949.42
2018-11-05T12:29:41.810Z,949.33
2018-11-05T12:30:41.827Z,949.4
2018-11-05T12:31:41.854Z,949.46